Monday, November 20, 2017, 4:09 AM EST
Back to Local

KAOO, Altoona-blair County Airport

Location: Martinsburg, PA, United States Lat: 40.3
Local Time: 4:09 AM EST ( 9:09 GMT) Lon: -78.317
Time Zone: US/Eastern Elev: 1502 ft

Show me the last for .
Show Decoded

2017-11-20 03:53 METAR KAOO 200853Z AUTO 29016G21KT 10SM OVC039 01/M07 A3001 RMK AO2 SLP175
                 T00061067 51019 =
2017-11-20 02:53 METAR KAOO 200753Z AUTO 27015G25KT 10SM SCT041 OVC055 01/M07 A3000 RMK AO2 PK
                 WND 29026/0723 SLP172 T00061072 =
2017-11-20 01:53 METAR KAOO 200653Z AUTO 28011KT 10SM BKN038 OVC055 01/M06 A2998 RMK AO2 PK WND
                 28027/0556 SLP166 T00061061 =
2017-11-20 00:53 METAR KAOO 200553Z AUTO 28017G24KT 10SM BKN055 01/M07 A2995 RMK AO2 PK WND
                 29026/0529 SLP155 60000 T00061067 10022 20006 53021 =
2017-11-19 23:53 METAR KAOO 200453Z AUTO 29012G22KT 9SM FEW032 BKN049 OVC060 01/M05 A2992 RMK AO2
                 PK WND 29028/0401 SNB39E50 SLP146 P0000 T00111050 401170006 =
2017-11-19 22:53 METAR KAOO 200353Z AUTO 28017G25KT 9SM FEW033 BKN060 01/M04 A2990 RMK AO2 PK WND
                 28029/0256 SNB38E48 SLP137 P0000 T00111044 =
2017-11-19 21:53 METAR KAOO 200253Z AUTO 29016G29KT 10SM FEW032 OVC070 02/M05 A2989 RMK AO2 PK
                 WND 29029/0251 SLP132 60000 T00171050 51023 =
2017-11-19 20:53 METAR KAOO 200153Z AUTO 30016G28KT 10SM SCT034 OVC070 02/M04 A2986 RMK AO2 PK
                 WND 29028/0150 SLP124 T00221044 =
2017-11-19 19:53 METAR KAOO 200053Z AUTO 29013G21KT 9SM SCT027 BKN033 OVC070 02/M03 A2984 RMK AO2
                 SNB41E52 SLP116 P0000 T00221028 =
2017-11-19 18:53 METAR KAOO 192353Z AUTO 29015G25KT 10SM FEW024 SCT030 BKN035 02/M03 A2981 RMK
                 AO2 SNB2258E22 SLP106 P0000 60000 T00221028 10044 20011 53017 =
2017-11-19 18:40 METAR KAOO 192340Z AUTO 29015G22KT 10SM FEW018 SCT029 BKN075 02/M02 A2981 RMK
                 AO2 SNB2258E22 P0000 T00221022 =
2017-11-19 18:14 METAR KAOO 192314Z AUTO 28013G22KT 3SM -SN BKN017 BKN023 OVC050 02/M02 A2981 RMK
                 AO2 SNB2258 P0000 T00171017 =
2017-11-19 18:07 METAR KAOO 192307Z AUTO 29014G22KT 1 3/4SM -SN BKN020 BKN031 OVC070 02/M02 A2981
                 RMK AO2 SNB2258 P0000 T00171017 =
2017-11-19 17:53 METAR KAOO 192253Z AUTO 29009G17KT 10SM FEW032 FEW042 OVC060 03/M03 A2979 RMK
                 AO2 SLP099 T00281033 =
2017-11-19 16:53 METAR KAOO 192153Z AUTO 29013G20KT 10SM FEW034 SCT065 03/M03 A2977 RMK AO2 PK
                 WND 30030/2132 SLP092 T00281033 =
2017-11-19 15:53 METAR KAOO 192053Z AUTO 29013G22KT 10SM BKN034 OVC055 03/M03 A2976 RMK AO2
                 SLP088 60000 T00331033 53012 =
2017-11-19 14:53 METAR KAOO 191953Z AUTO 29011G18KT 10SM FEW013 BKN042 OVC049 03/M02 A2974 RMK
                 AO2 RAE1857SNB29E43 SLP079 P0000 T00331017 =
2017-11-19 14:49 METAR KAOO 191949Z AUTO 28013KT 10SM FEW011 BKN041 OVC048 03/M02 A2974 RMK AO2
                 RAE1857SNB29E43 P0000 =
2017-11-19 14:40 METAR KAOO 191940Z AUTO 28012G18KT 3SM -SN FEW011 BKN026 OVC040 03/M01 A2974 RMK
                 AO2 RAE1857SNB29 P0000 T00281011 =
2017-11-19 14:33 METAR KAOO 191933Z AUTO 30011G20KT 1 3/4SM -SN FEW011 SCT016 OVC026 02/M01 A2974
                 RMK AO2 RAE1857SNB29 P0000 T00221006 =
2017-11-19 13:53 METAR KAOO 191853Z AUTO 27018G22KT 10SM -RA BKN029 OVC038 04/M02 A2973 RMK AO2
                 RAB47 SLP073 P0000 T00391017 =
2017-11-19 12:53 METAR KAOO 191753Z AUTO 28017G22KT 10SM BKN039 OVC047 04/M02 A2973 RMK AO2 PK
                 WND 30028/1723 SLP072 P0001 60001 T00441022 10050 20028 51014 =
2017-11-19 11:53 METAR KAOO 191653Z AUTO 29016G24KT 10SM SCT027 OVC035 04/M02 A2972 RMK AO2 PK
                 WND 31026/1559 RAB06E16SNB16E38 SLP071 P0000 T00391017 =
2017-11-19 10:53 METAR KAOO 191553Z AUTO 29015G27KT 10SM BKN027 OVC032 04/M01 A2971 RMK AO2 PK
                 WND 30031/1526 SLP067 T00391011 =
2017-11-19 09:53 METAR KAOO 191453Z AUTO 28013KT 10SM BKN020 BKN026 OVC031 05/01 A2968 RMK AO2 PK
                 WND 29026/1436 RAE11B33E43 SLP059 P0000 60000 T00500006 51038 =
2017-11-19 08:53 METAR KAOO 191353Z AUTO 27015G24KT 10SM -RA BKN018 OVC023 04/01 A2965 RMK AO2 PK
                 WND 29027/1322 RAB06 SLP050 P0000 T00390006 =
2017-11-19 07:53 METAR KAOO 191253Z AUTO 30014G22KT 10SM BKN021 OVC029 04/01 A2960 RMK AO2 PK WND
                 30026/1234 SLP031 T00440006 =
2017-11-19 07:12 METAR KAOO 191212Z AUTO 29014KT 10SM SCT023 BKN029 OVC046 04/01 A2958 RMK AO2
                 T00440006 =
2017-11-19 06:53 METAR KAOO 191153Z AUTO 29016G29KT 10SM SCT025 BKN031 OVC047 05/01 A2957 RMK AO2
                 PK WND 32029/1149 SLP020 60001 70098 T00500006 10117 20044 51052 =
2017-11-19 05:53 METAR KAOO 191053Z AUTO 28019G29KT 10SM BKN023 OVC030 04/01 A2951 RMK AO2 PK WND
                 28031/1009 RAE0959 SLP003 P0000 T00440006 =
2017-11-19 04:53 METAR KAOO 190953Z AUTO 28020G28KT 10SM -RA BKN027 OVC039 04/01 A2947 RMK AO2 PK
                 WND 29034/0855 RAB0854 SLP988 P0000 T00440011 =

Support USWX by starting your Amazon purchase here.